sensor_id;sensor_type;location;lat;lon;timestamp;temperature;humidity
13332;DHT22;6735;51.456;12.626;2024-01-25T00:02:16;8.20;75.50
13332;DHT22;6735;51.456;12.626;2024-01-25T00:04:41;8.20;75.50
13332;DHT22;6735;51.456;12.626;2024-01-25T00:07:10;8.20;75.40
13332;DHT22;6735;51.456;12.626;2024-01-25T00:09:35;8.20;75.30
13332;DHT22;6735;51.456;12.626;2024-01-25T00:12:01;8.20;75.30
13332;DHT22;6735;51.456;12.626;2024-01-25T00:14:26;8.20;75.20
13332;DHT22;6735;51.456;12.626;2024-01-25T00:16:52;8.20;75.20
13332;DHT22;6735;51.456;12.626;2024-01-25T00:19:17;8.20;75.20
13332;DHT22;6735;51.456;12.626;2024-01-25T00:21:43;8.20;75.20
13332;DHT22;6735;51.456;12.626;2024-01-25T00:24:12;8.20;75.30
13332;DHT22;6735;51.456;12.626;2024-01-25T00:26:37;8.20;75.20
13332;DHT22;6735;51.456;12.626;2024-01-25T00:29:03;8.20;75.40
13332;DHT22;6735;51.456;12.626;2024-01-25T00:31:29;8.20;75.50
13332;DHT22;6735;51.456;12.626;2024-01-25T00:33:55;8.20;75.40
13332;DHT22;6735;51.456;12.626;2024-01-25T00:36:21;8.20;75.40
13332;DHT22;6735;51.456;12.626;2024-01-25T00:38:47;8.20;75.30
13332;DHT22;6735;51.456;12.626;2024-01-25T00:41:17;8.20;75.10
13332;DHT22;6735;51.456;12.626;2024-01-25T00:43:43;8.20;74.90
13332;DHT22;6735;51.456;12.626;2024-01-25T00:46:09;8.20;74.70
13332;DHT22;6735;51.456;12.626;2024-01-25T00:48:34;8.30;74.20
13332;DHT22;6735;51.456;12.626;2024-01-25T00:51:00;8.30;74.00
13332;DHT22;6735;51.456;12.626;2024-01-25T00:53:26;8.30;73.80
13332;DHT22;6735;51.456;12.626;2024-01-25T00:55:52;8.30;74.00
13332;DHT22;6735;51.456;12.626;2024-01-25T00:58:17;8.30;74.30
13332;DHT22;6735;51.456;12.626;2024-01-25T01:00:43;8.30;74.20
13332;DHT22;6735;51.456;12.626;2024-01-25T01:03:09;8.30;74.30
13332;DHT22;6735;51.456;12.626;2024-01-25T01:05:35;8.30;74.10
13332;DHT22;6735;51.456;12.626;2024-01-25T01:08:01;8.30;74.00
13332;DHT22;6735;51.456;12.626;2024-01-25T01:10:26;8.30;73.90
13332;DHT22;6735;51.456;12.626;2024-01-25T01:12:52;8.30;74.10
13332;DHT22;6735;51.456;12.626;2024-01-25T01:15:18;8.30;74.10
13332;DHT22;6735;51.456;12.626;2024-01-25T01:17:44;8.20;74.40
13332;DHT22;6735;51.456;12.626;2024-01-25T01:20:10;8.20;74.40
13332;DHT22;6735;51.456;12.626;2024-01-25T01:22:35;8.20;74.50
13332;DHT22;6735;51.456;12.626;2024-01-25T01:25:01;8.30;74.40
13332;DHT22;6735;51.456;12.626;2024-01-25T01:27:26;8.20;74.40
13332;DHT22;6735;51.456;12.626;2024-01-25T01:29:52;8.20;74.60
13332;DHT22;6735;51.456;12.626;2024-01-25T01:32:17;8.20;74.50
13332;DHT22;6735;51.456;12.626;2024-01-25T01:34:43;8.20;74.50
13332;DHT22;6735;51.456;12.626;2024-01-25T01:37:08;8.20;74.70
13332;DHT22;6735;51.456;12.626;2024-01-25T01:39:34;8.20;74.60
13332;DHT22;6735;51.456;12.626;2024-01-25T01:41:59;8.20;74.70
13332;DHT22;6735;51.456;12.626;2024-01-25T01:44:24;8.10;74.80
13332;DHT22;6735;51.456;12.626;2024-01-25T01:46:50;8.20;74.90
13332;DHT22;6735;51.456;12.626;2024-01-25T01:49:16;8.20;74.90
13332;DHT22;6735;51.456;12.626;2024-01-25T01:51:42;8.20;74.90
13332;DHT22;6735;51.456;12.626;2024-01-25T01:54:09;8.10;75.10
13332;DHT22;6735;51.456;12.626;2024-01-25T01:56:35;8.10;75.00
13332;DHT22;6735;51.456;12.626;2024-01-25T01:59:02;8.10;74.90
13332;DHT22;6735;51.456;12.626;2024-01-25T02:01:29;8.10;75.00
13332;DHT22;6735;51.456;12.626;2024-01-25T02:03:54;8.10;74.90
13332;DHT22;6735;51.456;12.626;2024-01-25T02:06:21;8.10;75.00
13332;DHT22;6735;51.456;12.626;2024-01-25T02:08:50;8.10;75.00
13332;DHT22;6735;51.456;12.626;2024-01-25T02:11:18;8.10;75.00
13332;DHT22;6735;51.456;12.626;2024-01-25T02:13:44;8.10;75.10
13332;DHT22;6735;51.456;12.626;2024-01-25T02:16:09;8.10;75.10
13332;DHT22;6735;51.456;12.626;2024-01-25T02:18:35;8.00;75.10
13332;DHT22;6735;51.456;12.626;2024-01-25T02:21:01;7.90;75.10
13332;DHT22;6735;51.456;12.626;2024-01-25T02:23:27;8.00;75.00
13332;DHT22;6735;51.456;12.626;2024-01-25T02:25:52;7.90;75.00
13332;DHT22;6735;51.456;12.626;2024-01-25T02:28:18;7.90;74.90
13332;DHT22;6735;51.456;12.626;2024-01-25T02:30:44;7.90;75.00
13332;DHT22;6735;51.456;12.626;2024-01-25T02:33:09;7.80;75.00
13332;DHT22;6735;51.456;12.626;2024-01-25T02:35:35;7.80;74.70
13332;DHT22;6735;51.456;12.626;2024-01-25T02:38:00;7.80;74.50
13332;DHT22;6735;51.456;12.626;2024-01-25T02:40:26;7.90;74.30
13332;DHT22;6735;51.456;12.626;2024-01-25T02:42:51;7.80;74.30
13332;DHT22;6735;51.456;12.626;2024-01-25T02:45:17;7.80;74.50
13332;DHT22;6735;51.456;12.626;2024-01-25T02:47:42;7.80;74.60
13332;DHT22;6735;51.456;12.626;2024-01-25T02:50:08;7.70;74.70
13332;DHT22;6735;51.456;12.626;2024-01-25T02:52:34;7.70;74.80
13332;DHT22;6735;51.456;12.626;2024-01-25T02:54:59;7.60;75.00
13332;DHT22;6735;51.456;12.626;2024-01-25T02:57:25;7.60;75.10
13332;DHT22;6735;51.456;12.626;2024-01-25T02:59:51;7.50;75.30
13332;DHT22;6735;51.456;12.626;2024-01-25T03:02:16;7.50;75.20
13332;DHT22;6735;51.456;12.626;2024-01-25T03:04:44;7.40;75.50
13332;DHT22;6735;51.456;12.626;2024-01-25T03:07:10;7.40;75.40
13332;DHT22;6735;51.456;12.626;2024-01-25T03:09:35;7.40;75.40
13332;DHT22;6735;51.456;12.626;2024-01-25T03:12:01;7.30;75.60
13332;DHT22;6735;51.456;12.626;2024-01-25T03:14:26;7.30;75.70
13332;DHT22;6735;51.456;12.626;2024-01-25T03:16:52;7.30;75.60
13332;DHT22;6735;51.456;12.626;2024-01-25T03:19:18;7.20;75.80
13332;DHT22;6735;51.456;12.626;2024-01-25T03:21:43;7.20;75.80
13332;DHT22;6735;51.456;12.626;2024-01-25T03:24:09;7.20;75.80
13332;DHT22;6735;51.456;12.626;2024-01-25T03:26:34;7.20;76.00
13332;DHT22;6735;51.456;12.626;2024-01-25T03:29:00;7.10;76.30
13332;DHT22;6735;51.456;12.626;2024-01-25T03:31:25;7.10;76.30
13332;DHT22;6735;51.456;12.626;2024-01-25T03:33:51;7.10;76.50
13332;DHT22;6735;51.456;12.626;2024-01-25T03:36:16;7.10;76.10
13332;DHT22;6735;51.456;12.626;2024-01-25T03:38:42;7.10;76.30
13332;DHT22;6735;51.456;12.626;2024-01-25T03:41:07;7.10;76.30
13332;DHT22;6735;51.456;12.626;2024-01-25T03:43:33;7.10;76.30
13332;DHT22;6735;51.456;12.626;2024-01-25T03:45:59;7.10;76.40
13332;DHT22;6735;51.456;12.626;2024-01-25T03:48:24;7.10;76.40
13332;DHT22;6735;51.456;12.626;2024-01-25T03:50:50;7.10;76.50
13332;DHT22;6735;51.456;12.626;2024-01-25T03:53:15;7.10;76.40
13332;DHT22;6735;51.456;12.626;2024-01-25T03:55:41;7.10;76.20
13332;DHT22;6735;51.456;12.626;2024-01-25T03:58:06;7.10;76.50
13332;DHT22;6735;51.456;12.626;2024-01-25T04:00:32;7.10;76.70
13332;DHT22;6735;51.456;12.626;2024-01-25T04:02:58;7.10;76.70
13332;DHT22;6735;51.456;12.626;2024-01-25T04:05:23;7.10;76.70
13332;DHT22;6735;51.456;12.626;2024-01-25T04:07:49;7.10;76.80
13332;DHT22;6735;51.456;12.626;2024-01-25T04:10:14;7.00;77.10
13332;DHT22;6735;51.456;12.626;2024-01-25T04:12:40;7.10;76.70
13332;DHT22;6735;51.456;12.626;2024-01-25T04:15:06;7.10;76.60
13332;DHT22;6735;51.456;12.626;2024-01-25T04:17:31;7.10;76.40
13332;DHT22;6735;51.456;12.626;2024-01-25T04:19:57;7.10;76.30
13332;DHT22;6735;51.456;12.626;2024-01-25T04:22:22;7.10;76.30
13332;DHT22;6735;51.456;12.626;2024-01-25T04:24:48;7.20;76.30
13332;DHT22;6735;51.456;12.626;2024-01-25T04:27:14;7.10;76.40
13332;DHT22;6735;51.456;12.626;2024-01-25T04:29:41;7.10;76.40
13332;DHT22;6735;51.456;12.626;2024-01-25T04:32:10;7.20;76.20
13332;DHT22;6735;51.456;12.626;2024-01-25T04:34:36;7.10;76.10
13332;DHT22;6735;51.456;12.626;2024-01-25T04:37:01;7.10;76.20
13332;DHT22;6735;51.456;12.626;2024-01-25T04:39:27;7.10;76.00
13332;DHT22;6735;51.456;12.626;2024-01-25T04:41:52;7.20;75.90
13332;DHT22;6735;51.456;12.626;2024-01-25T04:44:18;7.20;75.70
13332;DHT22;6735;51.456;12.626;2024-01-25T04:46:44;7.30;75.70
13332;DHT22;6735;51.456;12.626;2024-01-25T04:49:09;7.30;75.50
13332;DHT22;6735;51.456;12.626;2024-01-25T04:51:35;7.30;75.00
13332;DHT22;6735;51.456;12.626;2024-01-25T04:54:00;7.40;75.00
13332;DHT22;6735;51.456;12.626;2024-01-25T04:56:26;7.40;75.10
13332;DHT22;6735;51.456;12.626;2024-01-25T04:58:51;7.40;74.90
13332;DHT22;6735;51.456;12.626;2024-01-25T05:01:17;7.40;74.90
13332;DHT22;6735;51.456;12.626;2024-01-25T05:03:42;7.40;74.70
13332;DHT22;6735;51.456;12.626;2024-01-25T05:06:08;7.40;74.80
13332;DHT22;6735;51.456;12.626;2024-01-25T05:08:33;7.40;74.80
13332;DHT22;6735;51.456;12.626;2024-01-25T05:10:59;7.40;74.90
13332;DHT22;6735;51.456;12.626;2024-01-25T05:13:24;7.40;74.50
13332;DHT22;6735;51.456;12.626;2024-01-25T05:15:50;7.40;74.60
13332;DHT22;6735;51.456;12.626;2024-01-25T05:18:15;7.40;74.70
13332;DHT22;6735;51.456;12.626;2024-01-25T05:20:41;7.40;74.40
13332;DHT22;6735;51.456;12.626;2024-01-25T05:23:07;7.40;74.30
13332;DHT22;6735;51.456;12.626;2024-01-25T05:25:32;7.50;74.20
13332;DHT22;6735;51.456;12.626;2024-01-25T05:27:58;7.40;74.20
13332;DHT22;6735;51.456;12.626;2024-01-25T05:30:25;7.40;74.00
13332;DHT22;6735;51.456;12.626;2024-01-25T05:32:50;7.50;73.30
13332;DHT22;6735;51.456;12.626;2024-01-25T05:35:17;7.50;73.30
13332;DHT22;6735;51.456;12.626;2024-01-25T05:37:43;7.60;73.10
13332;DHT22;6735;51.456;12.626;2024-01-25T05:40:08;7.60;73.00
13332;DHT22;6735;51.456;12.626;2024-01-25T05:42:35;7.60;72.90
13332;DHT22;6735;51.456;12.626;2024-01-25T05:45:01;7.60;72.80
13332;DHT22;6735;51.456;12.626;2024-01-25T05:47:27;7.60;72.60
13332;DHT22;6735;51.456;12.626;2024-01-25T05:49:53;7.70;72.80
13332;DHT22;6735;51.456;12.626;2024-01-25T05:52:18;7.70;73.00
13332;DHT22;6735;51.456;12.626;2024-01-25T05:54:45;7.70;72.80
13332;DHT22;6735;51.456;12.626;2024-01-25T05:57:10;7.60;72.70
13332;DHT22;6735;51.456;12.626;2024-01-25T05:59:36;7.60;72.90
13332;DHT22;6735;51.456;12.626;2024-01-25T06:02:01;7.70;73.00
13332;DHT22;6735;51.456;12.626;2024-01-25T06:04:27;7.60;73.10
13332;DHT22;6735;51.456;12.626;2024-01-25T06:06:53;7.70;73.10
13332;DHT22;6735;51.456;12.626;2024-01-25T06:09:19;7.60;73.20
13332;DHT22;6735;51.456;12.626;2024-01-25T06:11:44;7.70;73.30
13332;DHT22;6735;51.456;12.626;2024-01-25T06:14:11;7.80;73.30
13332;DHT22;6735;51.456;12.626;2024-01-25T06:16:36;7.80;73.20
13332;DHT22;6735;51.456;12.626;2024-01-25T06:19:03;7.80;73.40
13332;DHT22;6735;51.456;12.626;2024-01-25T06:21:29;8.00;73.00
13332;DHT22;6735;51.456;12.626;2024-01-25T06:23:54;8.20;72.70
13332;DHT22;6735;51.456;12.626;2024-01-25T06:26:19;8.10;72.80
13332;DHT22;6735;51.456;12.626;2024-01-25T06:28:45;8.00;73.00
13332;DHT22;6735;51.456;12.626;2024-01-25T06:31:10;7.90;73.30
13332;DHT22;6735;51.456;12.626;2024-01-25T06:33:36;7.90;73.30
13332;DHT22;6735;51.456;12.626;2024-01-25T06:36:01;7.90;73.40
13332;DHT22;6735;51.456;12.626;2024-01-25T06:38:27;7.90;73.70
13332;DHT22;6735;51.456;12.626;2024-01-25T06:40:52;7.90;73.90
13332;DHT22;6735;51.456;12.626;2024-01-25T06:43:18;7.80;74.20
13332;DHT22;6735;51.456;12.626;2024-01-25T06:45:43;7.80;74.10
13332;DHT22;6735;51.456;12.626;2024-01-25T06:48:09;7.80;74.30
13332;DHT22;6735;51.456;12.626;2024-01-25T06:50:34;7.80;74.50
13332;DHT22;6735;51.456;12.626;2024-01-25T06:53:00;7.70;74.50
13332;DHT22;6735;51.456;12.626;2024-01-25T06:55:26;7.70;74.90
13332;DHT22;6735;51.456;12.626;2024-01-25T06:57:51;7.70;74.70
13332;DHT22;6735;51.456;12.626;2024-01-25T07:00:17;7.70;74.80
13332;DHT22;6735;51.456;12.626;2024-01-25T07:02:44;7.70;75.00
13332;DHT22;6735;51.456;12.626;2024-01-25T07:05:09;7.70;75.30
13332;DHT22;6735;51.456;12.626;2024-01-25T07:07:35;7.70;74.80
13332;DHT22;6735;51.456;12.626;2024-01-25T07:10:01;7.70;74.90
13332;DHT22;6735;51.456;12.626;2024-01-25T07:12:26;7.70;74.90
13332;DHT22;6735;51.456;12.626;2024-01-25T07:14:52;7.60;75.20
13332;DHT22;6735;51.456;12.626;2024-01-25T07:17:18;7.60;75.30
13332;DHT22;6735;51.456;12.626;2024-01-25T07:19:43;7.60;75.20
13332;DHT22;6735;51.456;12.626;2024-01-25T07:22:08;7.60;75.30
13332;DHT22;6735;51.456;12.626;2024-01-25T07:24:34;7.60;75.20
13332;DHT22;6735;51.456;12.626;2024-01-25T07:27:00;7.60;74.80
13332;DHT22;6735;51.456;12.626;2024-01-25T07:29:25;7.60;75.00
13332;DHT22;6735;51.456;12.626;2024-01-25T07:31:50;7.60;74.80
13332;DHT22;6735;51.456;12.626;2024-01-25T07:34:16;7.60;74.80
13332;DHT22;6735;51.456;12.626;2024-01-25T07:36:41;7.60;74.60
13332;DHT22;6735;51.456;12.626;2024-01-25T07:39:07;7.60;74.40
13332;DHT22;6735;51.456;12.626;2024-01-25T07:41:33;7.60;74.10
13332;DHT22;6735;51.456;12.626;2024-01-25T07:43:59;7.60;74.00
13332;DHT22;6735;51.456;12.626;2024-01-25T07:46:24;7.60;73.80
13332;DHT22;6735;51.456;12.626;2024-01-25T07:48:50;7.60;73.60
13332;DHT22;6735;51.456;12.626;2024-01-25T07:51:15;7.60;73.50
13332;DHT22;6735;51.456;12.626;2024-01-25T07:53:41;7.70;73.70
13332;DHT22;6735;51.456;12.626;2024-01-25T07:56:10;7.60;73.20
13332;DHT22;6735;51.456;12.626;2024-01-25T07:58:36;7.70;73.50
13332;DHT22;6735;51.456;12.626;2024-01-25T08:01:03;7.70;73.70
13332;DHT22;6735;51.456;12.626;2024-01-25T08:03:29;7.70;73.30
13332;DHT22;6735;51.456;12.626;2024-01-25T08:05:55;7.80;73.30
13332;DHT22;6735;51.456;12.626;2024-01-25T08:08:20;7.80;73.50
13332;DHT22;6735;51.456;12.626;2024-01-25T08:10:45;7.80;73.70
13332;DHT22;6735;51.456;12.626;2024-01-25T08:13:12;7.90;73.70
13332;DHT22;6735;51.456;12.626;2024-01-25T08:15:37;7.80;73.90
13332;DHT22;6735;51.456;12.626;2024-01-25T08:18:03;7.90;74.00
13332;DHT22;6735;51.456;12.626;2024-01-25T08:20:29;7.90;74.00
13332;DHT22;6735;51.456;12.626;2024-01-25T08:22:54;7.90;74.00
13332;DHT22;6735;51.456;12.626;2024-01-25T08:25:20;7.90;73.90
13332;DHT22;6735;51.456;12.626;2024-01-25T08:27:45;7.90;73.60
13332;DHT22;6735;51.456;12.626;2024-01-25T08:30:11;7.90;73.70
13332;DHT22;6735;51.456;12.626;2024-01-25T08:32:37;8.00;73.70
13332;DHT22;6735;51.456;12.626;2024-01-25T08:35:02;8.00;73.60
13332;DHT22;6735;51.456;12.626;2024-01-25T08:37:28;8.10;73.30
13332;DHT22;6735;51.456;12.626;2024-01-25T08:39:54;8.00;73.30
13332;DHT22;6735;51.456;12.626;2024-01-25T08:42:19;8.10;73.20
13332;DHT22;6735;51.456;12.626;2024-01-25T08:44:46;8.10;73.20
13332;DHT22;6735;51.456;12.626;2024-01-25T08:47:16;8.10;73.00
13332;DHT22;6735;51.456;12.626;2024-01-25T08:49:42;8.20;73.20
13332;DHT22;6735;51.456;12.626;2024-01-25T08:52:08;8.20;73.00
13332;DHT22;6735;51.456;12.626;2024-01-25T08:54:33;8.30;73.00
13332;DHT22;6735;51.456;12.626;2024-01-25T08:56:59;8.30;72.80
13332;DHT22;6735;51.456;12.626;2024-01-25T08:59:25;8.30;72.70
13332;DHT22;6735;51.456;12.626;2024-01-25T09:01:51;8.40;72.40
13332;DHT22;6735;51.456;12.626;2024-01-25T09:04:17;8.50;71.70
13332;DHT22;6735;51.456;12.626;2024-01-25T09:06:43;8.40;71.80
13332;DHT22;6735;51.456;12.626;2024-01-25T09:09:09;8.50;71.80
13332;DHT22;6735;51.456;12.626;2024-01-25T09:11:36;8.60;71.50
13332;DHT22;6735;51.456;12.626;2024-01-25T09:14:01;8.70;71.10
13332;DHT22;6735;51.456;12.626;2024-01-25T09:16:27;8.70;71.00
13332;DHT22;6735;51.456;12.626;2024-01-25T09:18:52;8.70;70.70
13332;DHT22;6735;51.456;12.626;2024-01-25T09:21:18;8.70;70.20
13332;DHT22;6735;51.456;12.626;2024-01-25T09:23:43;8.80;70.40
13332;DHT22;6735;51.456;12.626;2024-01-25T09:26:08;8.80;69.90
13332;DHT22;6735;51.456;12.626;2024-01-25T09:28:34;8.80;69.50
13332;DHT22;6735;51.456;12.626;2024-01-25T09:30:59;8.80;69.20
13332;DHT22;6735;51.456;12.626;2024-01-25T09:33:25;8.80;69.50
13332;DHT22;6735;51.456;12.626;2024-01-25T09:35:50;8.90;69.50
13332;DHT22;6735;51.456;12.626;2024-01-25T09:38:16;8.90;69.40
13332;DHT22;6735;51.456;12.626;2024-01-25T09:40:42;9.00;69.30
13332;DHT22;6735;51.456;12.626;2024-01-25T09:43:07;9.00;69.40
13332;DHT22;6735;51.456;12.626;2024-01-25T09:45:33;9.10;69.40
13332;DHT22;6735;51.456;12.626;2024-01-25T09:48:00;9.10;69.10
13332;DHT22;6735;51.456;12.626;2024-01-25T09:50:30;9.00;68.50
13332;DHT22;6735;51.456;12.626;2024-01-25T09:52:59;9.10;68.70
13332;DHT22;6735;51.456;12.626;2024-01-25T09:55:26;9.10;68.30
13332;DHT22;6735;51.456;12.626;2024-01-25T09:57:53;9.10;68.00
13332;DHT22;6735;51.456;12.626;2024-01-25T10:00:22;9.10;67.50
13332;DHT22;6735;51.456;12.626;2024-01-25T10:02:49;9.20;67.70
13332;DHT22;6735;51.456;12.626;2024-01-25T10:05:18;9.20;67.50
13332;DHT22;6735;51.456;12.626;2024-01-25T10:07:45;9.20;67.60
13332;DHT22;6735;51.456;12.626;2024-01-25T10:10:12;9.20;67.90
13332;DHT22;6735;51.456;12.626;2024-01-25T10:12:39;9.30;67.80
13332;DHT22;6735;51.456;12.626;2024-01-25T10:15:05;9.30;67.40
13332;DHT22;6735;51.456;12.626;2024-01-25T10:17:31;9.30;67.30
13332;DHT22;6735;51.456;12.626;2024-01-25T10:19:57;9.30;67.00
13332;DHT22;6735;51.456;12.626;2024-01-25T10:22:23;9.20;66.90
13332;DHT22;6735;51.456;12.626;2024-01-25T10:24:49;9.20;67.10
13332;DHT22;6735;51.456;12.626;2024-01-25T10:27:19;9.10;67.40
13332;DHT22;6735;51.456;12.626;2024-01-25T10:29:44;9.10;67.60
13332;DHT22;6735;51.456;12.626;2024-01-25T10:32:10;9.20;67.50
13332;DHT22;6735;51.456;12.626;2024-01-25T10:34:36;9.20;67.20
13332;DHT22;6735;51.456;12.626;2024-01-25T10:37:05;9.20;67.00
13332;DHT22;6735;51.456;12.626;2024-01-25T10:39:31;9.20;67.00
13332;DHT22;6735;51.456;12.626;2024-01-25T10:41:58;9.20;67.00
13332;DHT22;6735;51.456;12.626;2024-01-25T10:44:24;9.20;67.00
13332;DHT22;6735;51.456;12.626;2024-01-25T10:46:50;9.20;66.60
13332;DHT22;6735;51.456;12.626;2024-01-25T10:49:18;9.20;66.80
13332;DHT22;6735;51.456;12.626;2024-01-25T10:51:44;9.30;66.60
13332;DHT22;6735;51.456;12.626;2024-01-25T10:54:12;9.30;66.50
13332;DHT22;6735;51.456;12.626;2024-01-25T10:56:42;9.30;66.80
13332;DHT22;6735;51.456;12.626;2024-01-25T10:59:08;9.30;66.90
13332;DHT22;6735;51.456;12.626;2024-01-25T11:01:36;9.40;66.90
13332;DHT22;6735;51.456;12.626;2024-01-25T11:04:01;9.40;66.70
13332;DHT22;6735;51.456;12.626;2024-01-25T11:06:27;9.40;67.10
13332;DHT22;6735;51.456;12.626;2024-01-25T11:09:06;9.40;67.10
13332;DHT22;6735;51.456;12.626;2024-01-25T11:11:32;9.40;67.30
13332;DHT22;6735;51.456;12.626;2024-01-25T11:13:58;9.40;67.60
13332;DHT22;6735;51.456;12.626;2024-01-25T11:16:31;9.50;67.50
13332;DHT22;6735;51.456;12.626;2024-01-25T11:18:59;9.50;67.30
13332;DHT22;6735;51.456;12.626;2024-01-25T11:21:48;9.50;67.60
13332;DHT22;6735;51.456;12.626;2024-01-25T11:24:22;9.60;67.30
13332;DHT22;6735;51.456;12.626;2024-01-25T11:26:49;9.50;67.20
13332;DHT22;6735;51.456;12.626;2024-01-25T11:29:19;9.40;67.20
13332;DHT22;6735;51.456;12.626;2024-01-25T11:31:47;9.40;67.20
13332;DHT22;6735;51.456;12.626;2024-01-25T11:34:13;9.40;66.90
13332;DHT22;6735;51.456;12.626;2024-01-25T11:36:39;9.30;66.70
13332;DHT22;6735;51.456;12.626;2024-01-25T11:39:05;9.30;67.00
13332;DHT22;6735;51.456;12.626;2024-01-25T11:41:32;9.20;66.80
13332;DHT22;6735;51.456;12.626;2024-01-25T11:43:58;9.20;67.30
13332;DHT22;6735;51.456;12.626;2024-01-25T11:46:23;9.30;67.10
13332;DHT22;6735;51.456;12.626;2024-01-25T11:48:50;9.40;67.30
13332;DHT22;6735;51.456;12.626;2024-01-25T11:51:15;9.50;66.90
13332;DHT22;6735;51.456;12.626;2024-01-25T11:53:41;9.50;65.50
13332;DHT22;6735;51.456;12.626;2024-01-25T11:56:10;9.70;64.90
13332;DHT22;6735;51.456;12.626;2024-01-25T11:58:37;9.70;64.90
13332;DHT22;6735;51.456;12.626;2024-01-25T12:01:05;9.70;65.00
13332;DHT22;6735;51.456;12.626;2024-01-25T12:03:36;9.70;64.70
13332;DHT22;6735;51.456;12.626;2024-01-25T12:06:03;9.80;64.60
13332;DHT22;6735;51.456;12.626;2024-01-25T12:08:31;9.90;64.70
13332;DHT22;6735;51.456;12.626;2024-01-25T12:11:07;9.90;64.40
13332;DHT22;6735;51.456;12.626;2024-01-25T12:13:40;9.90;64.60
13332;DHT22;6735;51.456;12.626;2024-01-25T12:16:06;9.80;64.40
13332;DHT22;6735;51.456;12.626;2024-01-25T12:18:33;9.80;64.20
13332;DHT22;6735;51.456;12.626;2024-01-25T12:21:00;9.80;64.70
13332;DHT22;6735;51.456;12.626;2024-01-25T12:23:37;9.80;64.50
13332;DHT22;6735;51.456;12.626;2024-01-25T12:26:07;9.70;64.50
13332;DHT22;6735;51.456;12.626;2024-01-25T12:28:33;9.70;65.10
13332;DHT22;6735;51.456;12.626;2024-01-25T12:31:00;9.70;65.10
13332;DHT22;6735;51.456;12.626;2024-01-25T12:33:26;9.60;65.40
13332;DHT22;6735;51.456;12.626;2024-01-25T12:35:52;9.60;65.40
13332;DHT22;6735;51.456;12.626;2024-01-25T12:38:20;9.60;65.20
13332;DHT22;6735;51.456;12.626;2024-01-25T12:40:49;9.70;64.80
13332;DHT22;6735;51.456;12.626;2024-01-25T12:43:15;9.70;64.90
13332;DHT22;6735;51.456;12.626;2024-01-25T12:45:41;9.70;65.00
13332;DHT22;6735;51.456;12.626;2024-01-25T12:48:07;9.60;65.70
13332;DHT22;6735;51.456;12.626;2024-01-25T12:50:33;9.60;65.70
13332;DHT22;6735;51.456;12.626;2024-01-25T12:52:59;9.50;65.70
13332;DHT22;6735;51.456;12.626;2024-01-25T12:55:25;9.40;66.00
13332;DHT22;6735;51.456;12.626;2024-01-25T12:57:51;9.40;66.20
13332;DHT22;6735;51.456;12.626;2024-01-25T13:00:16;9.40;66.30
13332;DHT22;6735;51.456;12.626;2024-01-25T13:02:42;9.30;66.30
13332;DHT22;6735;51.456;12.626;2024-01-25T13:05:07;9.30;66.40
13332;DHT22;6735;51.456;12.626;2024-01-25T13:07:33;9.10;66.90
13332;DHT22;6735;51.456;12.626;2024-01-25T13:09:59;9.10;67.20
13332;DHT22;6735;51.456;12.626;2024-01-25T13:12:24;9.10;67.20
13332;DHT22;6735;51.456;12.626;2024-01-25T13:14:50;9.10;67.50
13332;DHT22;6735;51.456;12.626;2024-01-25T13:17:15;9.10;67.40
13332;DHT22;6735;51.456;12.626;2024-01-25T13:19:40;9.10;67.70
13332;DHT22;6735;51.456;12.626;2024-01-25T13:22:06;9.00;68.00
13332;DHT22;6735;51.456;12.626;2024-01-25T13:24:31;9.00;67.90
13332;DHT22;6735;51.456;12.626;2024-01-25T13:26:57;8.90;67.70
13332;DHT22;6735;51.456;12.626;2024-01-25T13:29:22;8.90;67.60
13332;DHT22;6735;51.456;12.626;2024-01-25T13:31:48;8.90;67.80
13332;DHT22;6735;51.456;12.626;2024-01-25T13:34:13;8.80;67.90
13332;DHT22;6735;51.456;12.626;2024-01-25T13:36:39;8.70;68.00
13332;DHT22;6735;51.456;12.626;2024-01-25T13:39:05;8.70;67.90
13332;DHT22;6735;51.456;12.626;2024-01-25T13:41:30;8.60;68.10
13332;DHT22;6735;51.456;12.626;2024-01-25T13:43:55;8.60;68.30
13332;DHT22;6735;51.456;12.626;2024-01-25T13:46:21;8.70;68.00
13332;DHT22;6735;51.456;12.626;2024-01-25T13:48:46;8.70;69.10
13332;DHT22;6735;51.456;12.626;2024-01-25T13:51:12;8.70;68.20
13332;DHT22;6735;51.456;12.626;2024-01-25T13:53:38;8.70;68.30
13332;DHT22;6735;51.456;12.626;2024-01-25T13:56:03;8.60;68.60
13332;DHT22;6735;51.456;12.626;2024-01-25T13:58:29;8.60;68.50
13332;DHT22;6735;51.456;12.626;2024-01-25T14:00:54;8.60;68.60
13332;DHT22;6735;51.456;12.626;2024-01-25T14:03:20;8.60;68.60
13332;DHT22;6735;51.456;12.626;2024-01-25T14:05:45;8.60;68.60
13332;DHT22;6735;51.456;12.626;2024-01-25T14:08:11;8.70;68.50
13332;DHT22;6735;51.456;12.626;2024-01-25T14:10:36;8.60;68.70
13332;DHT22;6735;51.456;12.626;2024-01-25T14:13:02;8.70;68.70
13332;DHT22;6735;51.456;12.626;2024-01-25T14:15:28;8.70;68.80
13332;DHT22;6735;51.456;12.626;2024-01-25T14:17:54;8.60;69.00
13332;DHT22;6735;51.456;12.626;2024-01-25T14:20:19;8.60;69.00
13332;DHT22;6735;51.456;12.626;2024-01-25T14:22:45;8.60;69.00
13332;DHT22;6735;51.456;12.626;2024-01-25T14:25:10;8.60;69.30
13332;DHT22;6735;51.456;12.626;2024-01-25T14:27:37;8.60;69.30
13332;DHT22;6735;51.456;12.626;2024-01-25T14:30:02;8.70;69.40
13332;DHT22;6735;51.456;12.626;2024-01-25T14:32:29;8.70;69.50
13332;DHT22;6735;51.456;12.626;2024-01-25T14:34:55;8.60;69.70
13332;DHT22;6735;51.456;12.626;2024-01-25T14:37:20;8.60;69.70
13332;DHT22;6735;51.456;12.626;2024-01-25T14:39:46;8.70;69.70
13332;DHT22;6735;51.456;12.626;2024-01-25T14:42:12;8.70;69.60
13332;DHT22;6735;51.456;12.626;2024-01-25T14:44:38;8.70;69.80
13332;DHT22;6735;51.456;12.626;2024-01-25T14:47:04;8.70;69.70
13332;DHT22;6735;51.456;12.626;2024-01-25T14:49:30;8.60;69.80
13332;DHT22;6735;51.456;12.626;2024-01-25T14:51:55;8.60;69.90
13332;DHT22;6735;51.456;12.626;2024-01-25T14:54:20;8.70;69.70
13332;DHT22;6735;51.456;12.626;2024-01-25T14:56:46;8.60;69.70
13332;DHT22;6735;51.456;12.626;2024-01-25T14:59:15;8.60;69.80
13332;DHT22;6735;51.456;12.626;2024-01-25T15:01:41;8.60;69.80
13332;DHT22;6735;51.456;12.626;2024-01-25T15:04:08;8.60;69.70
13332;DHT22;6735;51.456;12.626;2024-01-25T15:06:33;8.60;69.90
13332;DHT22;6735;51.456;12.626;2024-01-25T15:08:59;8.60;69.80
13332;DHT22;6735;51.456;12.626;2024-01-25T15:11:24;8.60;69.80
13332;DHT22;6735;51.456;12.626;2024-01-25T15:13:49;8.60;70.60
13332;DHT22;6735;51.456;12.626;2024-01-25T15:16:15;8.60;70.70
13332;DHT22;6735;51.456;12.626;2024-01-25T15:18:40;8.50;71.00
13332;DHT22;6735;51.456;12.626;2024-01-25T15:21:06;8.60;71.40
13332;DHT22;6735;51.456;12.626;2024-01-25T15:23:31;8.60;71.70
13332;DHT22;6735;51.456;12.626;2024-01-25T15:25:57;8.60;71.20
13332;DHT22;6735;51.456;12.626;2024-01-25T15:28:22;8.50;71.50
13332;DHT22;6735;51.456;12.626;2024-01-25T15:30:48;8.50;71.60
13332;DHT22;6735;51.456;12.626;2024-01-25T15:33:13;8.50;71.80
13332;DHT22;6735;51.456;12.626;2024-01-25T15:35:39;8.40;72.50
13332;DHT22;6735;51.456;12.626;2024-01-25T15:38:04;8.30;72.40